createdAt,value
2023-02-01T00:00:55.841Z,68.61
2023-02-01T00:03:58.291Z,67.64
2023-02-01T00:07:01.785Z,67.16
2023-02-01T00:10:05.411Z,67.00
2023-02-01T00:13:07.673Z,67.09
2023-02-01T00:16:19.115Z,66.71
2023-02-01T00:19:21.416Z,67.15
2023-02-01T00:22:23.720Z,67.18
2023-02-01T00:25:26.000Z,66.66
2023-02-01T00:28:28.351Z,66.61
2023-02-01T00:31:31.000Z,67.06
2023-02-01T00:34:33.340Z,66.73
2023-02-01T00:37:35.656Z,66.56
2023-02-01T00:40:37.934Z,67.18
2023-02-01T00:43:40.780Z,66.48
2023-02-01T00:46:43.123Z,66.28
2023-02-01T00:49:46.010Z,65.97
2023-02-01T00:52:48.276Z,66.77
2023-02-01T00:55:50.750Z,66.70
2023-02-01T00:58:53.413Z,66.50
2023-02-01T01:01:55.729Z,66.82
2023-02-01T01:04:58.088Z,66.07
2023-02-01T01:08:00.408Z,66.53
2023-02-01T01:11:12.660Z,66.22
2023-02-01T01:14:15.033Z,64.85
2023-02-01T01:17:17.631Z,64.67
2023-02-01T01:20:22.936Z,64.99
2023-02-01T01:23:25.649Z,64.25
2023-02-01T01:26:29.869Z,64.83
2023-02-01T01:29:32.363Z,64.49
2023-02-01T01:32:34.707Z,64.50
2023-02-01T01:35:37.105Z,64.08
2023-02-01T01:38:40.893Z,63.87
2023-02-01T01:41:43.159Z,64.27
2023-02-01T01:45:02.320Z,63.61
2023-02-01T01:48:12.773Z,63.84
2023-02-01T01:51:18.763Z,63.38
2023-02-01T01:54:25.844Z,64.26
2023-02-01T01:57:34.414Z,63.82
2023-02-01T02:00:37.689Z,63.88
2023-02-01T02:03:49.148Z,62.49
2023-02-01T02:06:57.371Z,62.80
2023-02-01T02:10:01.377Z,62.44
2023-02-01T02:13:04.151Z,63.17
2023-02-01T02:16:23.617Z,62.82
2023-02-01T02:19:51.150Z,62.35
2023-02-01T02:23:15.117Z,61.70
2023-02-01T02:26:23.820Z,62.06
2023-02-01T02:29:41.266Z,62.18
2023-02-01T02:33:11.404Z,61.33
2023-02-01T02:36:19.189Z,61.70
2023-02-01T02:39:44.811Z,61.44
2023-02-01T02:43:24.557Z,61.70
2023-02-01T02:46:56.231Z,63.09
2023-02-01T02:50:40.124Z,62.08
2023-02-01T02:54:08.784Z,62.58
2023-02-01T02:57:33.424Z,61.75
2023-02-01T03:00:56.796Z,62.42
2023-02-01T03:04:11.237Z,61.70
2023-02-01T03:07:45.283Z,61.64
2023-02-01T03:11:07.963Z,62.10
2023-02-01T03:14:12.125Z,62.92
2023-02-01T03:17:24.249Z,62.25
2023-02-01T03:20:26.993Z,62.11
2023-02-01T03:23:32.706Z,61.36
2023-02-01T03:26:39.715Z,61.64
2023-02-01T03:30:21.876Z,61.49
2023-02-01T03:33:26.332Z,61.38
2023-02-01T03:36:33.816Z,61.22
2023-02-01T03:39:41.386Z,61.18
2023-02-01T03:42:47.425Z,60.75
2023-02-01T03:45:53.465Z,61.30
2023-02-01T03:48:56.475Z,61.96
2023-02-01T03:52:01.565Z,61.80
2023-02-01T03:55:05.368Z,61.33
2023-02-01T03:58:22.617Z,61.02
2023-02-01T04:01:34.620Z,60.90
2023-02-01T04:04:37.722Z,61.49
2023-02-01T04:07:40.680Z,60.51
2023-02-01T04:10:43.113Z,60.18
2023-02-01T04:13:45.696Z,60.27
2023-02-01T04:16:48.197Z,60.64
2023-02-01T04:19:50.521Z,60.26
2023-02-01T04:22:52.811Z,59.57
2023-02-01T04:25:55.849Z,59.93
2023-02-01T04:28:58.328Z,60.52
2023-02-01T04:32:00.759Z,60.66
2023-02-01T04:35:03.497Z,61.71
2023-02-01T04:38:05.790Z,59.33
2023-02-01T04:41:08.087Z,59.66
2023-02-01T04:44:25.200Z,59.56
2023-02-01T04:47:27.513Z,59.90
2023-02-01T04:50:32.453Z,60.16
2023-02-01T04:53:34.824Z,60.30
2023-02-01T04:56:37.103Z,61.45
2023-02-01T04:59:43.964Z,59.76
2023-02-01T05:02:46.276Z,60.24
2023-02-01T05:05:49.823Z,60.31
2023-02-01T05:08:52.414Z,60.41
2023-02-01T05:12:13.424Z,60.62
2023-02-01T05:15:15.887Z,60.97
2023-02-01T05:18:18.209Z,59.64
2023-02-01T05:21:42.409Z,59.31
2023-02-01T05:24:45.309Z,59.32
2023-02-01T05:27:47.630Z,59.54
2023-02-01T05:30:50.003Z,60.08
2023-02-01T05:33:52.383Z,59.89
2023-02-01T05:36:54.783Z,59.28
2023-02-01T05:39:57.131Z,60.15
2023-02-01T05:42:59.468Z,59.74
2023-02-01T05:46:01.849Z,61.36
2023-02-01T05:49:05.060Z,59.69
2023-02-01T05:52:07.329Z,59.47
2023-02-01T05:55:09.866Z,59.68
2023-02-01T05:58:13.367Z,59.41
2023-02-01T06:01:15.715Z,59.19
2023-02-01T06:04:18.087Z,58.68
2023-02-01T06:07:20.592Z,59.37
2023-02-01T06:10:24.707Z,60.72
2023-02-01T06:13:27.603Z,58.88
2023-02-01T06:16:30.330Z,57.69
2023-02-01T06:19:32.968Z,58.15
2023-02-01T06:32:59.912Z,57.29
2023-02-01T06:36:04.925Z,57.07
2023-02-01T06:39:07.209Z,56.80
2023-02-01T06:42:09.508Z,56.43
2023-02-01T06:45:16.042Z,57.10
2023-02-01T06:48:19.795Z,56.53
2023-02-01T06:51:40.108Z,56.99
2023-02-01T06:54:42.428Z,55.89
2023-02-01T06:57:44.834Z,56.04
2023-02-01T07:00:49.550Z,56.39
2023-02-01T07:03:54.462Z,56.74
2023-02-01T07:06:58.151Z,55.91
2023-02-01T07:10:00.477Z,55.12
2023-02-01T07:13:02.810Z,53.97
2023-02-01T07:16:12.233Z,52.87
2023-02-01T07:19:15.629Z,51.84
2023-02-01T07:22:18.318Z,51.56
2023-02-01T07:25:20.725Z,51.33
2023-02-01T07:28:23.231Z,50.29
2023-02-01T07:31:27.855Z,50.38
2023-02-01T07:34:32.022Z,49.75
2023-02-01T07:37:36.063Z,49.92
2023-02-01T07:40:38.578Z,49.14
2023-02-01T07:43:40.977Z,49.25
2023-02-01T07:46:48.227Z,50.48
2023-02-01T07:49:50.623Z,49.39
2023-02-01T07:52:54.480Z,48.55
2023-02-01T07:55:57.302Z,48.64
2023-02-01T07:59:01.748Z,49.34
2023-02-01T08:02:04.721Z,47.43
2023-02-01T08:05:10.294Z,47.44
2023-02-01T08:08:14.069Z,46.93
2023-02-01T08:11:16.764Z,46.44
2023-02-01T08:14:19.203Z,48.25
2023-02-01T08:17:21.586Z,46.55
2023-02-01T08:20:24.492Z,48.83
2023-02-01T08:23:29.172Z,49.15
2023-02-01T08:26:33.925Z,48.44
2023-02-01T08:29:36.262Z,49.66
2023-02-01T08:32:38.680Z,49.13
2023-02-01T08:35:44.055Z,48.58
2023-02-01T08:38:46.774Z,49.50
2023-02-01T08:42:09.197Z,48.81
2023-02-01T08:45:11.907Z,48.13
2023-02-01T08:48:14.413Z,48.32
2023-02-01T08:51:20.670Z,48.43
2023-02-01T08:54:26.189Z,49.52
2023-02-01T08:57:29.584Z,49.02
2023-02-01T09:00:31.893Z,49.71
2023-02-01T09:03:34.492Z,48.26
2023-02-01T09:06:37.105Z,49.07
2023-02-01T09:09:39.739Z,47.68
2023-02-01T09:12:42.110Z,47.31
2023-02-01T09:15:44.482Z,47.62
2023-02-01T09:18:56.183Z,47.34
2023-02-01T09:22:12.177Z,45.54
2023-02-01T09:25:15.259Z,46.18
2023-02-01T09:28:21.047Z,44.34
2023-02-01T09:31:23.493Z,45.57
2023-02-01T09:34:25.869Z,45.64
2023-02-01T09:37:29.315Z,44.57
2023-02-01T09:40:32.172Z,44.83
2023-02-01T09:43:48.037Z,45.71
2023-02-01T09:46:52.424Z,45.25
2023-02-01T09:50:22.133Z,46.71
2023-02-01T09:53:29.288Z,48.93
2023-02-01T09:56:43.205Z,49.70
2023-02-01T09:59:50.177Z,49.60
2023-02-01T10:02:52.881Z,50.11
2023-02-01T10:06:31.883Z,51.22
2023-02-01T10:09:55.874Z,50.26
2023-02-01T10:13:40.558Z,49.78
2023-02-01T10:16:53.165Z,49.29
2023-02-01T10:20:12.321Z,49.47
2023-02-01T10:23:34.022Z,49.95
2023-02-01T10:26:42.545Z,51.38
2023-02-01T10:29:48.697Z,51.98
2023-02-01T10:33:09.459Z,53.20
2023-02-01T10:36:18.100Z,52.63
2023-02-01T10:39:25.189Z,51.78
2023-02-01T10:42:29.975Z,51.35
2023-02-01T10:45:38.911Z,49.59
2023-02-01T10:48:41.960Z,48.84
2023-02-01T10:51:49.656Z,48.04
2023-02-01T10:54:53.339Z,47.67
2023-02-01T10:58:00.796Z,46.54
2023-02-01T11:01:08.556Z,46.91
2023-02-01T11:04:14.468Z,46.57
2023-02-01T11:07:25.121Z,47.32
2023-02-01T11:10:41.899Z,46.09
2023-02-01T11:13:46.491Z,46.09
2023-02-01T11:16:51.659Z,46.52
2023-02-01T11:20:01.894Z,46.76
2023-02-01T11:23:04.474Z,47.88
2023-02-01T11:26:24.365Z,48.83
2023-02-01T11:29:32.610Z,47.48
2023-02-01T11:32:35.051Z,49.46
2023-02-01T11:35:41.552Z,50.46
2023-02-01T11:38:53.593Z,50.51
2023-02-01T11:42:18.353Z,51.77
2023-02-01T11:45:34.292Z,53.02
2023-02-01T11:48:38.558Z,54.37
2023-02-01T11:52:06.440Z,56.49
2023-02-01T11:55:14.760Z,55.96
2023-02-01T11:58:31.214Z,59.55
2023-02-01T12:01:53.423Z,59.73
2023-02-01T12:05:08.354Z,59.34
2023-02-01T12:08:38.634Z,60.64
2023-02-01T12:12:09.294Z,62.90
2023-02-01T12:15:58.402Z,62.89
2023-02-01T12:19:16.879Z,63.13
2023-02-01T12:22:59.796Z,64.02
2023-02-01T12:26:44.367Z,63.38
2023-02-01T12:30:10.166Z,65.06
2023-02-01T12:33:53.042Z,66.36
2023-02-01T12:37:26.602Z,66.89
2023-02-01T12:41:11.357Z,68.67
2023-02-01T12:44:26.328Z,70.23
2023-02-01T12:47:43.957Z,69.50
2023-02-01T12:50:52.056Z,72.03
2023-02-01T12:54:23.424Z,69.63
2023-02-01T12:57:37.576Z,70.81
2023-02-01T13:00:47.677Z,72.69
2023-02-01T13:04:17.646Z,71.43
2023-02-01T13:07:40.641Z,71.75
2023-02-01T13:10:57.031Z,72.84
2023-02-01T13:14:09.073Z,71.57
2023-02-01T13:17:32.275Z,68.51
2023-02-01T13:20:46.163Z,65.70
2023-02-01T13:23:49.778Z,67.69
2023-02-01T13:26:55.192Z,67.77
2023-02-01T13:30:25.364Z,68.41
2023-02-01T13:34:05.509Z,69.76
2023-02-01T13:37:27.724Z,70.09
2023-02-01T13:40:46.234Z,70.07
2023-02-01T13:43:50.259Z,70.54
2023-02-01T13:46:57.515Z,71.25
2023-02-01T13:50:04.071Z,70.35
2023-02-01T13:53:12.645Z,71.90
2023-02-01T13:56:18.572Z,72.33
2023-02-01T13:59:57.253Z,72.15
2023-02-01T14:03:02.395Z,72.91
2023-02-01T14:06:17.904Z,73.27
2023-02-01T14:09:34.306Z,72.75
2023-02-01T14:12:46.549Z,73.05
2023-02-01T14:16:04.343Z,73.39
2023-02-01T14:19:10.329Z,72.96
2023-02-01T14:22:15.605Z,73.00
2023-02-01T14:25:21.470Z,73.21
2023-02-01T14:28:29.883Z,72.13
2023-02-01T14:31:41.107Z,71.89
2023-02-01T14:34:56.008Z,71.92
2023-02-01T14:38:03.847Z,72.25
2023-02-01T14:41:27.526Z,70.55
2023-02-01T14:44:36.090Z,71.34
2023-02-01T14:47:38.422Z,70.15
2023-02-01T14:50:50.922Z,70.39
2023-02-01T14:53:53.347Z,69.49
2023-02-01T14:56:55.810Z,70.73
2023-02-01T15:00:10.017Z,68.19
2023-02-01T15:03:23.172Z,69.03
2023-02-01T15:06:27.796Z,69.23
2023-02-01T15:09:40.235Z,69.25
2023-02-01T15:12:45.426Z,68.22
2023-02-01T15:16:18.994Z,68.35
2023-02-01T15:19:30.055Z,69.23
2023-02-01T15:22:32.884Z,69.05
2023-02-01T15:25:37.919Z,69.46
2023-02-01T15:28:40.245Z,69.96
2023-02-01T15:31:46.942Z,67.97
2023-02-01T15:34:50.720Z,67.87
2023-02-01T15:37:53.870Z,66.10
2023-02-01T15:41:11.802Z,67.00
2023-02-01T15:44:20.922Z,66.90
2023-02-01T15:47:28.772Z,65.24
2023-02-01T15:50:32.701Z,67.00
2023-02-01T15:53:35.594Z,66.68
2023-02-01T15:56:39.871Z,67.25
2023-02-01T15:59:45.077Z,66.80
2023-02-01T16:02:59.134Z,67.22
2023-02-01T16:06:04.654Z,65.48
2023-02-01T16:09:14.572Z,65.25
2023-02-01T16:12:43.978Z,65.79
2023-02-01T16:15:46.413Z,64.83
2023-02-01T16:18:48.983Z,66.66
2023-02-01T16:21:51.845Z,64.56
2023-02-01T16:24:54.951Z,63.87
2023-02-01T16:27:57.551Z,65.20
2023-02-01T16:31:00.925Z,64.39
2023-02-01T16:34:03.461Z,63.12
2023-02-01T16:37:06.094Z,63.99
2023-02-01T16:40:15.660Z,62.56
2023-02-01T16:43:22.854Z,63.15
2023-02-01T16:46:27.299Z,64.05
2023-02-01T16:49:29.592Z,64.63
2023-02-01T16:52:32.072Z,63.11
2023-02-01T16:55:36.058Z,63.82
2023-02-01T16:58:40.440Z,65.14
2023-02-01T17:01:43.612Z,65.64
2023-02-01T17:04:46.799Z,64.68
2023-02-01T17:07:49.205Z,65.79
2023-02-01T17:10:52.075Z,64.47
2023-02-01T17:13:54.722Z,66.07
2023-02-01T17:16:59.350Z,66.15
2023-02-01T17:20:01.818Z,65.66
2023-02-01T17:23:04.759Z,64.67
2023-02-01T17:26:11.600Z,65.97
2023-02-01T17:29:14.063Z,65.34
2023-02-01T17:32:21.349Z,65.13
2023-02-01T17:35:27.953Z,64.14
2023-02-01T17:38:30.712Z,63.19
2023-02-01T17:41:33.784Z,62.82
2023-02-01T17:44:36.256Z,64.01
2023-02-01T17:47:38.956Z,65.84
2023-02-01T17:50:41.723Z,65.52
2023-02-01T17:53:44.815Z,64.39
2023-02-01T17:56:49.885Z,64.20
2023-02-01T17:59:52.149Z,63.75
2023-02-01T18:02:54.479Z,64.12
2023-02-01T18:05:57.978Z,65.05
2023-02-01T18:09:00.287Z,63.17
2023-02-01T18:12:05.107Z,61.16
2023-02-01T18:15:16.933Z,61.96
2023-02-01T18:18:19.443Z,62.07
2023-02-01T18:21:23.116Z,61.04
2023-02-01T18:24:27.425Z,61.39
2023-02-01T18:27:31.139Z,61.42
2023-02-01T18:30:34.580Z,61.25
2023-02-01T18:33:37.041Z,62.17
2023-02-01T18:36:39.493Z,62.00
2023-02-01T18:39:41.804Z,62.26
2023-02-01T18:42:44.423Z,62.22
2023-02-01T18:45:47.890Z,62.81
2023-02-01T18:48:50.275Z,62.71
2023-02-01T18:51:53.065Z,61.30
2023-02-01T18:55:00.063Z,61.95
2023-02-01T18:58:04.680Z,60.82
2023-02-01T19:01:09.159Z,60.27
2023-02-01T19:04:23.905Z,59.85
2023-02-01T19:07:29.033Z,60.32
2023-02-01T19:10:31.382Z,60.70
2023-02-01T19:13:37.096Z,60.74
2023-02-01T19:16:40.089Z,60.55
2023-02-01T19:19:44.598Z,60.57
2023-02-01T19:22:47.436Z,61.59
2023-02-01T19:25:52.891Z,59.96
2023-02-01T19:28:58.339Z,59.81
2023-02-01T19:32:00.747Z,60.27
2023-02-01T19:35:03.329Z,60.48
2023-02-01T19:38:06.283Z,60.42
2023-02-01T19:41:08.794Z,60.94
2023-02-01T19:44:11.140Z,59.97
2023-02-01T19:47:13.601Z,59.03
2023-02-01T19:50:19.593Z,59.48
2023-02-01T19:53:24.920Z,59.44
2023-02-01T19:56:27.302Z,57.62
2023-02-01T19:59:29.985Z,57.14
2023-02-01T20:02:32.124Z,58.02
2023-02-01T20:05:34.438Z,58.45
2023-02-01T20:08:36.755Z,57.44
2023-02-01T20:11:39.281Z,57.73
2023-02-01T20:14:41.652Z,57.81
2023-02-01T20:17:44.730Z,56.01
2023-02-01T20:20:47.022Z,58.28
2023-02-01T20:23:49.327Z,56.63
2023-02-01T20:26:52.603Z,58.47
2023-02-01T20:29:55.112Z,56.39
2023-02-01T20:32:57.352Z,56.97
2023-02-01T20:36:00.049Z,58.19
2023-02-01T20:39:02.591Z,57.54
2023-02-01T20:42:04.955Z,58.13
2023-02-01T20:45:08.106Z,57.94
2023-02-01T20:48:11.987Z,58.86
2023-02-01T20:51:16.180Z,58.85
2023-02-01T20:54:18.647Z,59.22
2023-02-01T20:57:21.058Z,59.14
2023-02-01T21:00:23.700Z,58.82
2023-02-01T21:03:26.557Z,58.57
2023-02-01T21:06:28.847Z,60.10
2023-02-01T21:09:31.558Z,60.41
2023-02-01T21:12:34.045Z,59.90
2023-02-01T21:15:36.941Z,60.51
2023-02-01T21:18:39.467Z,61.04
2023-02-01T21:21:42.329Z,61.81
2023-02-01T21:24:44.739Z,61.20
2023-02-01T21:27:47.031Z,61.19
2023-02-01T21:30:49.312Z,61.82
2023-02-01T21:33:52.166Z,61.71
2023-02-01T21:36:54.529Z,61.64
2023-02-01T21:39:56.806Z,61.89
2023-02-01T21:42:59.100Z,62.05
2023-02-01T21:46:01.484Z,62.23
2023-02-01T21:49:07.169Z,63.13
2023-02-01T21:52:10.219Z,62.82
2023-02-01T21:55:13.782Z,63.37
2023-02-01T21:58:16.131Z,63.83
2023-02-01T22:01:18.780Z,63.91
2023-02-01T22:04:21.255Z,64.26
2023-02-01T22:07:24.188Z,65.03
2023-02-01T22:10:26.735Z,64.65
2023-02-01T22:13:29.073Z,65.72
2023-02-01T22:16:31.910Z,66.03
2023-02-01T22:19:34.391Z,65.44
2023-02-01T22:22:36.731Z,66.45
2023-02-01T22:25:39.133Z,66.41
2023-02-01T22:28:47.918Z,66.08
2023-02-01T22:31:50.770Z,65.84
2023-02-01T22:34:53.374Z,65.98
2023-02-01T22:37:55.725Z,65.15
2023-02-01T22:40:59.524Z,65.16
2023-02-01T22:44:01.804Z,65.55
2023-02-01T22:47:04.367Z,66.76
2023-02-01T22:50:07.277Z,65.76
2023-02-01T22:53:09.603Z,66.44
2023-02-01T22:56:13.178Z,66.34
2023-02-01T22:59:15.977Z,66.02
2023-02-01T23:02:18.243Z,65.87
2023-02-01T23:05:21.113Z,67.32
2023-02-01T23:08:23.431Z,66.83
2023-02-01T23:11:26.242Z,67.68
2023-02-01T23:14:28.666Z,66.92
2023-02-01T23:17:32.113Z,67.42
2023-02-01T23:20:34.377Z,68.26
2023-02-01T23:23:36.932Z,67.77
2023-02-01T23:26:39.970Z,67.49
2023-02-01T23:29:42.429Z,67.16
2023-02-01T23:32:44.722Z,67.40
2023-02-01T23:35:57.759Z,67.19
2023-02-01T23:39:00.137Z,67.62
2023-02-01T23:42:03.927Z,67.16
2023-02-01T23:45:06.702Z,66.37
2023-02-01T23:48:09.036Z,66.42
2023-02-01T23:51:12.362Z,67.02
2023-02-01T23:54:14.763Z,66.39
2023-02-01T23:57:17.060Z,67.01
